Barrackville, WV (26559)

7:39 PM EDT on August 29, 2015 (GMT -0400)
East Fairmont | | Change Station
CLOSE
Current Station
Personal Weather Station
Location: Fairmont, WV
Elevation: 1004 ft
Nearby Weather Stations

Elev 1004 ft 39.48 °N, 80.13 °W | Updated 3 minutes ago

Clear
Clear
82.8 °F
Feels Like 83 °F
N
0.0
Wind Variable Wind from SSW

Today
High -- | Low -- °F
--% Chance of Precip.
Yesterday
High -- | Low -- °F
Precip. -- in
6:45 AM 7:56 PM
Full, 100% visible
Pressure 30.06 in
Visibility 10.0 miles
Clouds Scattered Clouds 9500 ft
Mostly Cloudy 25000 ft
Heat Index 83 °F
Dew Point 62 °F
Humidity 49%
Rainfall 0.00 in
Snow Depth Not available.
UV 0 out of 12
Pollen 9.40 out of 12
Air Quality Not available.
Flu Activity Not available.
METAR KCKB 292253Z 22008KT 10SM SCT095 BKN250 27/14 A3010 RMK AO2 SLP180 T02720139
Pressure 30.06 in
Visibility 10.0 miles
Clouds Scattered Clouds 9500 ft
Mostly Cloudy 25000 ft
Heat Index 83 °F
Dew Point 62 °F
Humidity 49%
Rainfall 0.00 in
Snow Depth Not available.
UV 0 out of 12
Pollen 9.40 out of 12
Air Quality Not available.
Flu Activity Not available.
METAR KCKB 292253Z 22008KT 10SM SCT095 BKN250 27/14 A3010 RMK AO2 SLP180 T02720139

10-Day Weather Forecast

×

Almanac

Astronomy

Aug. 29, 2015 Rise Set
Actual Time
Civil Twilight
Nautical Twilight
Astronomical Twilight
Moon
Length of Visible Light
Length of Day
Tomorrow will be .
, % of the Moon is Illuminated

Today's Extremes

State Highs State Lows

Community

WunderPhotos

Upload Photos

1,850,783 photos uploaded!

WunderBlogs® & News

Nearby

Air Quality

  Air Quality AQ Index Pollutant
Not available.

Snow Depth

Station Depth Elevation

Earthquake Activity

City Distance Mag. Time & Date
Minimum magnitude displayed is 2.5.

Coastal Water Temperatures

Place Temperature

Stations

Nearby Weather Stations

Station Location Temp. Windchill Dew Point Humidity Wind Precip. Elev Updated Type